AREA preflight bulletin
Updated "live" 22 Oct 2019, 01:29

back to the map




METAR og TAF


NUUK
  AKTUEL BGGH 220120Z AUTO 04013KT 9999NDV NCD 01/M06 Q1016=
  TAF 9 timer BGGH 212104Z 2121/2122 CNL=

KANGERLUSSUAQ
  AKTUEL BGSF 220120Z AUTO 04006KT 010V070 9999NDV NCD M12/M15 Q1025=
  TAF 24 timer BGSF 212248Z 2200/2306 07008KT 9999 FEW070=

KULUSUK
  AKTUEL BGKK 220120Z AUTO 10017KT 9999NDV -SHSN BKN021/// BKN065/// M02/M04 Q1017=
  TAF 9 timer BGKK 211901Z 2119/2124 CNL=

NERLERIT INAAT
  AKTUEL BGCO 220050Z AUTO 30015KT //// BKN039/// BKN066/// M08/M17 Q1023=
  TAF 9 timer BGCO 211607Z 2116/2121 CNL=

KEFLAVIK
  AKTUEL BIKF 220100Z 03017KT 9999 BKN025 01/M03 Q1009=
  TAF 24 timer BIKF 220110Z 2203/2303 03018KT 9999 SCT025 TX02/2215Z TNM00/2303Z BECMG 2208/2210 03025G35KT BECMG 2301/2303 03016KT=

REYKJAVIK
  AKTUEL BIRK 220100Z 04006KT 330V090 CAVOK 01/M05 Q1008=
  TAF 24 timer BIRK 220110Z 2203/2303 03010KT 9999 FEW028 TX02/2214Z TNM01/2303Z TEMPO 2207/2300 03022G32KT=

AKUREYRI
  AKTUEL BIAR 220100Z 33009KT 8000 -SN SCT011 BKN013 OVC022 M00/M01 Q1010=
  TAF 24 timer BIAR 220110Z 2203/2303 35014KT 9000 -SHSN BKN013 OVC023 TX01/2212Z TNM03/2303Z TEMPO 2203/2303 3000 SHSN OVC005 TEMPO 2214/2219 06020G30KT=


SIGMETS:

Ingen SIGMET fundet:

SNOWTAM:

ICAO
BIRK (REYKJAVIK)

valid from:
1910212200

Notam_id:
1496

SNOWTAM 1496 A) BIRK B) 10212200 F) NIL/NIL/NIL B) 10212200 F) NIL/NIL/NIL S) 10220600


ICAO
BIAR (AKUREYRI)

valid from:
1910212200

Notam_id:
1495

SNOWTAM 1495 A) BIAR B) 10212200 C) 01 F) 1/1/1 H) 5/5/5 S) 10220600 T) RWY 01 CONTAMINATION 100 PERCENT



NOTAM/SNOWTAM for operationel use has to be confirmed with the
nearest AIS Briefing Office prior to a flight.

ICAO
BGGH (NUUK)

FIR
BGGL

Notam_id:
BGB0605/19

valid from:
1909101306

E) BGGH AFIS FREQ 119,100MHZ LIMITED RADIOCOVERAGE WITHIN TIZ TO THE NE, E, SE AND S.

valid to:
1911301300EST




ICAO
BGKK (KULUSUK)

FIR
BGGL

Notam_id:
BGB0675/19

valid from:
1910181853

E) LOC DA OBST LIGHTS LIL F R OUT OF SERVICE. PSN 653413N0371225W.

valid to:
1911152000EST


Replacing:
BGB0639/19

ICAO
BGKK (KULUSUK)

FIR
BGGL

Notam_id:
BGB0626/19

valid from:
1911070000

E) TRIGGER NOTAM - PERM AIP AIRAC AMDT 07/19 WEF 07 NOV 2019. PAPI ANGLE RWY 11 CHANGED AT APPROACH AND RUNWAY LIGHTING. PAPI ANGLE RWY 11 CHANGED ON ADC.

valid to:
1911202359




ICAO
BGKK (KULUSUK)

FIR
BGGL

Notam_id:
BGB0740/17

valid from:
1709221803

E) PAPI RWY 11 ANGLE CHANGED TO 3.40 DEG.

valid to:
PERM




ICAO
BGGL (SONDRESTROM FIR)

FIR
BGGL

Notam_id:
BGA0483/19

valid from:
1909271038

E) NUUK INFORMATION FREQ 5526 KHZ PSN 6334N03707W KULUSUK U/S.

valid to:
2004011800




ICAO
BGGL (SONDRESTROM FIR)

FIR
BGGL

Notam_id:
BGA0488/19

valid from:
1910010455

E) CHECKLIST YEAR=2017 0269 YEAR=2018 0199 YEAR=2019 0323 0416 0447 0469 0470 0471 0474 0482 0483 0485 0487 LATEST PUBLICATIONS AIP AIRAC AMDT IFR 007/2019 EFFECTIVE DATE 07 NOV 19 AIP AMDT IFR 003/2018 EFFECTIVE DATE 15 MAR 18 AIP SUP IFR 001/2019 EFFECTIVE DATE 06 JUN 19 AIC IFR A001/2019 EFFECTIVE DATE 17 JAN 19

valid to:
1911010455EST


Replacing:
BGA0454/19

ICAO
BGGL (SONDRESTROM FIR)

FIR
BGGL

Notam_id:
BGB0643/19

valid from:
1910010455

E) CHECKLIST YEAR=2017 0740 YEAR=2018 NIL YEAR=2019 0145 0506 0508 0582 0585 0605 0606 0625 0626 0627 0628 0636 0639 LATEST PUBLICATIONS AIP AIRAC AMDT IFR 007/2019 EFFECTIVE DATE 07 NOV 19 AIP AMDT IFR 003/2018 EFFECTIVE DATE 15 MAR 18 AIP SUP IFR 001/2019 EFFECTIVE DATE 06 JUN 19 AIC IFR A001/2019 EFFECTIVE DATE 17 JAN 19

valid to:
1911010455EST


Replacing:
BGB0587/19

ICAO
BGGL (SONDRESTROM FIR)

FIR
BGGL

Notam_id:
BGC0100/19

valid from:
1910010455

E) CHECKLIST YEAR=2018 0079 0081 YEAR=2019 0049 0067 0068 0070 0073 0087 0096 0098 0099 LATEST PUBLICATIONS AIP AIRAC AMDT IFR 007/2019 EFFECTIVE DATE 07 NOV 19 AIP AMDT IFR 003/2018 EFFECTIVE DATE 15 MAR 18 AIP SUP IFR 001/2019 EFFECTIVE DATE 06 JUN 19 AIC IFR A001/2019 EFFECTIVE DATE 17 JAN 19

valid to:
1911010455EST


Replacing:
BGC0086/19

ICAO
BGGL (SONDRESTROM FIR)

FIR
BGGL

Notam_id:
BGA0447/19

valid from:
1910100000

E) AIP GREENLAND AIRAC AMDT EFFECTIVE DATE 10 OCT 2019: NIL.

valid to:
1910232359




ICAO
BGGL (SONDRESTROM FIR)

FIR
BGGL

Notam_id:
BGA0416/19

valid from:
1908141100

E) DIRECTION OF CRUISING LEVELS FOR RNP-ROUTE UT596 HAS BEEN CHANGED FROM EVEN TO ODD.

valid to:
1911062359




ICAO
BGGL (SONDRESTROM FIR)

FIR
BGGL

Notam_id:
BGA0470/19

valid from:
1911070000

E) TRIGGER NOTAM - PERM AIP AIRAC AMDT 07/19 WEF 07 NOV 2019. DME PA (CH26Y) WITHDRAWN. SUNRISE/SUNSET TABLES UPDATED. DIRECTION CHANGED FROM EVEN TO ODD AT AREA NAVIGATION (RNAV) ROUTE UT596.

valid to:
1911202359




ICAO
BGGL (SONDRESTROM FIR)

FIR
BGGL

Notam_id:
BGA0519/19

valid from:
1912050000

E) TRIGGER NOTAM - PERM AIP AIRAC AMDT 08/19 WEF 05 DEC 2019. LIST OF AIRAC EFFECTIVE DATES UPDATED.

valid to:
1912182359




ICAO
BGGL (SONDRESTROM FIR)

FIR
BGGL

Notam_id:
BGA0199/18

valid from:
1805310935

E) GREENLAND AND ADJACENT WATERS ARE CONSIDERED HOSTILE AREAS BY THE CIVIL AVIATION AUTHORITY (TBST). THREE MAJOR REASONS CONTRIBUTE TO DEFINING THE AREA AS HOSTILE: A SAFE FORCED LANDING CANNOT BE ACCOMPLISHED BECAUSE THE SURFACE IS INADEQUATE. THE HELICOPTER OCCUPANTS CANNOT BE ADEQUATELY PROTECTED FROM THE ELEMENTS. SEARCH AND RESCUE RESPONSE/CAPABILITY ARE NOT PROVIDED CONSISTENT WITH ANTICIPATED EXPOSURE.

valid to:
PERM




ICAO
BIKF (KEFLAVIK)

FIR
BIRD

Notam_id:
BIA0446/19

valid from:
1909271454

E) RELEASE POINT 9 ON TERMINAL APRON IS TEMPORARILY OUT OF USE A/C SHALL INSTEAD BE RELEASED BEHIND STAND NUMBER 5 REF AIP ICELAND BIKF AD 2.24.2.1-1

valid to:
1910272359


Replacing:
BIA0431/19

ICAO
BIRK (REYKJAVIK)

FIR
BIRD

Notam_id:
BIA0390/19

valid from:
1908290840

E) GF LOCATOR 319 KHZ UNSERVICEABLE, DUE TO MAINTENANCE. REF: AIP BIRK AD 2.19.

valid to:
1910282359


Replacing:
BIA0326/19

ICAO
BIRK (REYKJAVIK)

FIR
BIRD

Notam_id:
BIA0440/19

valid from:
1909241504

E) REF BIRK AD 2.24.10.5-7 EFF 23 JUN 2017 BIRK RNAV(GNSS) RWY 31. DUE TO VEGETATION PENETRATING THE VSS AND OCS SURFACES ONLY CIRCLING MINIMA APPLICABLE.

valid to:
1911242359




ICAO
BIRK (REYKJAVIK)

FIR
BIRD

Notam_id:
BIA0502/19

valid from:
1910161034

E) RWY 19 5 LDIN FLASHING LIGHTS DISTANCE FROM THR 19: 734M, 1279M, 1659M, 2110M AND 2753 M UNSERVICEABLE

valid to:
2001161000




ICAO
BIAR (AKUREYRI)

FIR
BIRD

Notam_id:
BIA0517/19

valid from:
1910211440

E) AR NDB 334 KHZ UNSERVICEABLE REF AIP: BIAR AD 2.19

valid to:
1910231600




ICAO
BIAR (AKUREYRI)

FIR
BIRD

Notam_id:
BIA0454/19

valid from:
1909301533

E) MAST ERECTED ON STRIP, 260M SOUTH OF THRESHOLD RWY 19 AND 120M WEST OF EXTENDED CENTRELINE RWY 19. ELEVATION 56.69FT. MAST IS LIT WITH OBS LGT. POSITION 653953.62N 0180434.18W

valid to:
1912302300




ICAO
BIAR (AKUREYRI)

FIR
BIRD

Notam_id:
BIA0361/19

valid from:
1908151545

E) FREQUENCY 118.7 IS INOP. REF: AIP ICELAND BIAR AD 2.18.

valid to:
1911142359


Replacing:
BIA0156/19


Copyright Naviair   2003-2016